createdAt,value
2023-05-25T00:00:06.206Z,9.41
2023-05-25T00:02:09.485Z,9.39
2023-05-25T00:04:17.151Z,9.37
2023-05-25T00:06:21.102Z,9.35
2023-05-25T00:08:25.524Z,9.33
2023-05-25T00:10:28.824Z,9.32
2023-05-25T00:12:32.268Z,9.31
2023-05-25T00:14:35.994Z,9.29
2023-05-25T00:16:40.826Z,9.27
2023-05-25T00:18:44.567Z,9.24
2023-05-25T00:20:49.297Z,9.22
2023-05-25T00:22:56.259Z,9.20
2023-05-25T00:24:59.606Z,9.17
2023-05-25T00:27:03.225Z,9.16
2023-05-25T00:29:07.282Z,9.14
2023-05-25T00:31:10.654Z,9.14
2023-05-25T00:33:14.194Z,9.15
2023-05-25T00:35:17.605Z,9.14
2023-05-25T00:37:23.549Z,9.15
2023-05-25T00:39:26.844Z,9.14
2023-05-25T00:41:31.987Z,9.13
2023-05-25T00:43:35.359Z,9.11
2023-05-25T00:45:39.028Z,9.11
2023-05-25T00:47:42.676Z,9.11
2023-05-25T00:49:46.293Z,9.10
2023-05-25T00:51:50.157Z,9.10
2023-05-25T00:53:54.896Z,9.09
2023-05-25T00:56:06.332Z,9.07
2023-05-25T00:58:09.786Z,9.08
2023-05-25T01:00:15.442Z,9.06
2023-05-25T01:02:21.105Z,9.04
2023-05-25T01:04:25.537Z,9.02
2023-05-25T01:06:33.555Z,8.99
2023-05-25T01:08:38.541Z,8.98
2023-05-25T01:10:44.238Z,8.94
2023-05-25T01:12:48.636Z,8.92
2023-05-25T01:14:53.417Z,8.91
2023-05-25T01:16:59.019Z,8.89
2023-05-25T01:19:02.498Z,8.87
2023-05-25T01:21:14.201Z,8.86
2023-05-25T01:23:20.639Z,8.85
2023-05-25T01:25:31.580Z,8.83
2023-05-25T01:27:41.241Z,8.82
2023-05-25T01:29:46.738Z,8.81
2023-05-25T01:31:51.089Z,8.80
2023-05-25T01:33:55.143Z,8.78
2023-05-25T01:35:59.561Z,8.76
2023-05-25T01:38:04.539Z,8.74
2023-05-25T01:40:10.279Z,8.72
2023-05-25T01:42:13.771Z,8.70
2023-05-25T01:44:17.157Z,8.69
2023-05-25T01:46:29.650Z,8.68
2023-05-25T01:48:44.211Z,8.67
2023-05-25T01:50:55.838Z,8.64
2023-05-25T01:53:05.856Z,8.63
2023-05-25T01:55:13.040Z,8.61
2023-05-25T01:57:18.773Z,8.57
2023-05-25T01:59:24.364Z,8.54
2023-05-25T02:01:29.573Z,8.53
2023-05-25T02:03:32.994Z,8.51
2023-05-25T02:05:36.667Z,8.48
2023-05-25T02:07:41.759Z,8.46
2023-05-25T02:09:46.564Z,8.45
2023-05-25T02:11:50.538Z,8.43
2023-05-25T02:13:53.868Z,8.41
2023-05-25T02:15:57.633Z,8.40
2023-05-25T02:18:01.402Z,8.38
2023-05-25T02:20:08.619Z,8.36
2023-05-25T02:22:12.054Z,8.34
2023-05-25T02:24:15.337Z,8.33
2023-05-25T02:26:20.038Z,8.32
2023-05-25T02:28:23.372Z,8.32
2023-05-25T02:30:26.788Z,8.31
2023-05-25T02:32:33.769Z,8.30
2023-05-25T02:34:38.671Z,8.29
2023-05-25T02:36:43.671Z,8.28
2023-05-25T02:38:49.843Z,8.26
2023-05-25T02:40:54.398Z,8.25
2023-05-25T02:42:59.149Z,8.23
2023-05-25T02:45:02.545Z,8.23
2023-05-25T02:47:07.721Z,8.20
2023-05-25T02:49:11.319Z,8.19
2023-05-25T02:51:14.753Z,8.17
2023-05-25T02:53:18.142Z,8.17
2023-05-25T02:55:21.516Z,8.15
2023-05-25T02:57:24.932Z,8.15
2023-05-25T02:59:29.676Z,8.14
2023-05-25T03:01:35.186Z,8.13
2023-05-25T03:03:38.704Z,8.13
2023-05-25T03:05:42.136Z,8.14
2023-05-25T03:07:45.879Z,8.14
2023-05-25T03:09:49.582Z,8.17
2023-05-25T03:11:52.966Z,8.18
2023-05-25T03:13:57.621Z,8.19
2023-05-25T03:16:02.426Z,8.22
2023-05-25T03:18:05.969Z,8.22
2023-05-25T03:20:15.701Z,8.23
2023-05-25T03:22:22.580Z,8.22
2023-05-25T03:24:26.832Z,8.22
2023-05-25T03:26:32.328Z,8.22
2023-05-25T03:28:37.214Z,8.19
2023-05-25T03:30:41.097Z,8.20
2023-05-25T03:32:47.174Z,8.19
2023-05-25T03:34:50.490Z,8.18
2023-05-25T03:36:55.169Z,8.18
2023-05-25T03:38:58.849Z,8.18
2023-05-25T03:41:02.220Z,8.17
2023-05-25T03:43:05.600Z,8.17
2023-05-25T03:45:10.158Z,8.18
2023-05-25T03:47:14.020Z,8.19
2023-05-25T03:49:18.791Z,8.21
2023-05-25T03:51:22.197Z,8.25
2023-05-25T03:53:25.593Z,8.29
2023-05-25T03:55:29.544Z,8.34
2023-05-25T03:57:32.892Z,8.38
2023-05-25T03:59:36.192Z,8.43
2023-05-25T04:01:40.171Z,8.48
2023-05-25T04:03:43.600Z,8.54
2023-05-25T04:05:48.344Z,8.59
2023-05-25T04:07:52.240Z,8.64
2023-05-25T04:09:55.592Z,8.68
2023-05-25T04:11:58.942Z,8.72
2023-05-25T04:14:02.291Z,8.75
2023-05-25T04:16:10.280Z,8.79
2023-05-25T04:18:14.014Z,8.83
2023-05-25T04:20:17.954Z,8.87
2023-05-25T04:22:22.826Z,8.91
2023-05-25T04:24:26.463Z,8.97
2023-05-25T04:26:30.561Z,9.03
2023-05-25T04:28:34.162Z,9.07
2023-05-25T04:31:00.166Z,9.15
2023-05-25T04:33:29.851Z,9.24
2023-05-25T04:35:50.611Z,9.33
2023-05-25T04:37:56.960Z,9.39
2023-05-25T04:40:01.692Z,9.44
2023-05-25T04:42:06.431Z,9.48
2023-05-25T04:44:10.873Z,9.50
2023-05-25T04:46:22.325Z,9.50
2023-05-25T04:48:25.737Z,9.50
2023-05-25T04:50:29.167Z,9.51
2023-05-25T04:52:32.627Z,9.55
2023-05-25T04:54:37.556Z,9.56
2023-05-25T04:56:41.074Z,9.59
2023-05-25T04:58:44.976Z,9.62
2023-05-25T05:00:49.705Z,9.64
2023-05-25T05:02:56.665Z,9.67
2023-05-25T05:05:00.212Z,9.69
2023-05-25T05:07:04.045Z,9.71
2023-05-25T05:09:07.930Z,9.74
2023-05-25T05:11:12.649Z,9.77
2023-05-25T05:13:16.202Z,9.81
2023-05-25T05:15:20.073Z,9.84
2023-05-25T05:17:26.425Z,9.87
2023-05-25T05:19:30.030Z,9.91
2023-05-25T05:21:33.506Z,9.93
2023-05-25T05:23:38.729Z,9.95
2023-05-25T05:25:42.232Z,9.97
2023-05-25T05:27:47.540Z,10.00
2023-05-25T05:29:59.896Z,10.04
2023-05-25T05:32:03.479Z,10.09
2023-05-25T05:34:08.760Z,10.13
2023-05-25T05:36:12.155Z,10.17
2023-05-25T05:38:16.423Z,10.21
2023-05-25T05:40:19.761Z,10.26
2023-05-25T05:42:23.515Z,10.30
2023-05-25T05:44:29.500Z,10.36
2023-05-25T05:46:34.006Z,10.41
2023-05-25T05:48:37.733Z,10.47
2023-05-25T05:50:42.419Z,10.53
2023-05-25T05:52:48.189Z,10.61
2023-05-25T05:54:51.509Z,10.66
2023-05-25T05:56:55.154Z,10.69
2023-05-25T05:58:58.691Z,10.74
2023-05-25T06:01:04.394Z,10.80
2023-05-25T06:03:08.132Z,10.86
2023-05-25T06:05:11.629Z,10.92
2023-05-25T06:07:17.353Z,10.95
2023-05-25T06:09:20.737Z,10.98
2023-05-25T06:11:24.114Z,11.02
2023-05-25T06:13:27.534Z,11.09
2023-05-25T06:15:30.861Z,11.12
2023-05-25T06:17:37.609Z,11.18
2023-05-25T06:19:41.533Z,11.27
2023-05-25T06:21:44.873Z,11.37
2023-05-25T06:23:48.868Z,11.42
2023-05-25T06:25:54.002Z,11.47
2023-05-25T06:27:58.735Z,11.49
2023-05-25T06:30:02.814Z,11.49
2023-05-25T06:32:10.894Z,11.52
2023-05-25T06:34:16.141Z,11.58
2023-05-25T06:36:20.000Z,11.64
2023-05-25T06:38:24.007Z,11.71
2023-05-25T06:40:27.387Z,11.81
2023-05-25T06:42:30.701Z,11.89
2023-05-25T06:44:34.040Z,11.98
2023-05-25T06:46:39.327Z,12.04
2023-05-25T06:48:42.730Z,12.11
2023-05-25T06:50:47.556Z,12.17
2023-05-25T06:52:51.260Z,12.26
2023-05-25T06:54:54.729Z,12.35
2023-05-25T06:56:58.122Z,12.41
2023-05-25T06:59:01.554Z,12.47
2023-05-25T07:01:05.581Z,12.51
2023-05-25T07:03:09.096Z,12.56
2023-05-25T07:05:12.500Z,12.63
2023-05-25T07:07:17.381Z,12.61
2023-05-25T07:09:21.533Z,12.55
2023-05-25T07:11:25.149Z,12.49
2023-05-25T07:13:28.475Z,12.47
2023-05-25T07:15:31.858Z,12.45
2023-05-25T07:17:36.646Z,12.43
2023-05-25T07:19:40.321Z,12.45
2023-05-25T07:21:43.660Z,12.47
2023-05-25T07:23:48.383Z,12.49
2023-05-25T07:25:51.670Z,12.56
2023-05-25T07:27:55.374Z,12.67
2023-05-25T07:29:58.699Z,12.77
2023-05-25T07:32:01.987Z,12.89
2023-05-25T07:34:05.409Z,13.00
2023-05-25T07:36:09.929Z,13.08
2023-05-25T07:38:13.230Z,13.15
2023-05-25T07:40:17.984Z,13.24
2023-05-25T07:42:21.855Z,13.37
2023-05-25T07:44:25.240Z,13.52
2023-05-25T07:46:28.611Z,13.68
2023-05-25T07:48:31.991Z,13.85
2023-05-25T07:50:35.333Z,13.98
2023-05-25T07:52:39.441Z,14.05
2023-05-25T07:54:42.758Z,14.12
2023-05-25T07:56:47.567Z,14.13
2023-05-25T07:58:50.925Z,14.07
2023-05-25T08:00:54.303Z,13.95
2023-05-25T08:02:57.943Z,13.91
2023-05-25T08:05:05.556Z,13.97
2023-05-25T08:07:08.901Z,14.05
2023-05-25T08:09:13.347Z,14.18
2023-05-25T08:11:17.147Z,14.33
2023-05-25T08:13:21.824Z,14.44
2023-05-25T08:15:26.538Z,14.57
2023-05-25T08:17:29.918Z,14.69
2023-05-25T08:19:33.639Z,14.78
2023-05-25T08:21:37.778Z,14.91
2023-05-25T08:23:42.520Z,15.06
2023-05-25T08:25:46.323Z,15.17
2023-05-25T08:27:49.804Z,15.18
2023-05-25T08:29:54.535Z,15.18
2023-05-25T08:31:57.921Z,15.21
2023-05-25T08:34:01.722Z,15.23
2023-05-25T08:36:05.511Z,15.24
2023-05-25T08:38:08.840Z,15.28
2023-05-25T08:40:16.860Z,15.36
2023-05-25T08:42:20.288Z,15.44
2023-05-25T08:44:23.847Z,15.52
2023-05-25T08:46:32.257Z,15.58
2023-05-25T08:48:41.945Z,15.62
2023-05-25T08:50:46.897Z,15.64
2023-05-25T08:52:53.024Z,15.61
2023-05-25T08:55:01.262Z,15.52
2023-05-25T08:57:11.618Z,15.43
2023-05-25T08:59:27.793Z,15.36
2023-05-25T09:01:38.736Z,15.37
2023-05-25T09:03:44.044Z,15.46
2023-05-25T09:05:48.526Z,15.61
2023-05-25T09:07:54.785Z,15.75
2023-05-25T09:09:58.946Z,15.83
2023-05-25T09:12:03.023Z,15.81
2023-05-25T09:14:07.175Z,15.81
2023-05-25T09:16:11.271Z,15.83
2023-05-25T09:18:16.218Z,15.87
2023-05-25T09:20:20.791Z,15.95
2023-05-25T09:22:24.479Z,16.07
2023-05-25T09:24:28.077Z,16.14
2023-05-25T09:26:31.686Z,16.07
2023-05-25T09:28:34.984Z,16.02
2023-05-25T09:30:38.385Z,16.01
2023-05-25T09:32:42.049Z,16.08
2023-05-25T09:34:47.253Z,16.21
2023-05-25T09:36:50.853Z,16.29
2023-05-25T09:38:54.895Z,16.34
2023-05-25T09:40:58.553Z,16.36
2023-05-25T09:43:03.921Z,16.39
2023-05-25T09:45:08.202Z,16.45
2023-05-25T09:47:13.921Z,16.51
2023-05-25T09:49:17.922Z,16.52
2023-05-25T09:51:22.878Z,16.54
2023-05-25T09:53:27.548Z,16.58
2023-05-25T09:55:48.158Z,16.69
2023-05-25T09:57:55.904Z,16.82
2023-05-25T09:59:59.278Z,16.91
2023-05-25T10:02:02.916Z,16.91
2023-05-25T10:04:06.390Z,16.89
2023-05-25T10:06:10.036Z,16.84
2023-05-25T10:08:15.409Z,16.85
2023-05-25T10:10:18.922Z,16.88
2023-05-25T10:12:25.322Z,16.91
2023-05-25T10:14:30.247Z,16.94
2023-05-25T10:16:35.323Z,16.99
2023-05-25T10:18:45.086Z,17.02
2023-05-25T10:20:50.596Z,17.05
2023-05-25T10:22:58.789Z,17.12
2023-05-25T10:25:10.057Z,17.22
2023-05-25T10:27:26.969Z,17.30
2023-05-25T10:29:32.616Z,17.34
2023-05-25T10:31:37.828Z,17.36
2023-05-25T10:33:41.532Z,17.39
2023-05-25T10:36:01.686Z,17.49
2023-05-25T10:38:07.538Z,17.57
2023-05-25T10:40:13.975Z,17.57
2023-05-25T10:42:26.984Z,17.59
2023-05-25T10:44:31.077Z,17.68
2023-05-25T10:46:34.609Z,17.81
2023-05-25T10:48:39.475Z,17.98
2023-05-25T10:50:43.011Z,18.13
2023-05-25T10:52:46.357Z,18.15
2023-05-25T10:54:50.251Z,18.03
2023-05-25T10:57:14.749Z,17.84
2023-05-25T10:59:27.403Z,17.70
2023-05-25T11:01:34.343Z,17.65
2023-05-25T11:03:51.817Z,17.62
2023-05-25T11:05:55.239Z,17.65
2023-05-25T11:07:59.658Z,17.70
2023-05-25T11:10:03.479Z,17.85
2023-05-25T11:12:07.176Z,18.03
2023-05-25T11:14:22.756Z,18.26
2023-05-25T11:16:36.382Z,18.46
2023-05-25T11:18:40.251Z,18.60
2023-05-25T11:20:44.530Z,18.65
2023-05-25T11:22:49.381Z,18.71
2023-05-25T11:24:55.042Z,18.80
2023-05-25T11:27:01.004Z,18.88
2023-05-25T11:29:15.839Z,18.95
2023-05-25T11:31:23.576Z,19.02
2023-05-25T11:33:26.982Z,19.06
2023-05-25T11:35:33.748Z,19.13
2023-05-25T11:37:37.596Z,19.16
2023-05-25T11:39:41.247Z,19.10
2023-05-25T11:41:49.634Z,18.98
2023-05-25T11:43:53.471Z,18.85
2023-05-25T11:45:58.590Z,18.71
2023-05-25T11:48:01.950Z,18.66
2023-05-25T11:50:05.906Z,18.64
2023-05-25T11:52:09.569Z,18.68
2023-05-25T11:54:22.808Z,18.77
2023-05-25T11:56:35.079Z,18.87
2023-05-25T11:58:39.308Z,18.92
2023-05-25T12:00:42.848Z,18.98
2023-05-25T12:02:47.840Z,19.04
2023-05-25T12:04:55.486Z,19.08
2023-05-25T12:07:05.556Z,19.18
2023-05-25T12:09:13.410Z,19.27
2023-05-25T12:11:16.860Z,19.30
2023-05-25T12:13:21.831Z,19.34
2023-05-25T12:15:26.448Z,19.43
2023-05-25T12:17:30.289Z,19.48
2023-05-25T12:19:35.146Z,19.51
2023-05-25T12:21:39.663Z,19.50
2023-05-25T12:23:43.216Z,19.51
2023-05-25T12:25:51.047Z,19.56
2023-05-25T12:28:12.589Z,19.64
2023-05-25T12:30:16.290Z,19.68
2023-05-25T12:32:20.033Z,19.71
2023-05-25T12:34:29.387Z,19.75
2023-05-25T12:36:44.618Z,19.80
2023-05-25T12:38:59.789Z,19.81
2023-05-25T12:41:07.245Z,19.85
2023-05-25T12:43:11.917Z,19.90
2023-05-25T12:45:15.340Z,19.91
2023-05-25T12:47:20.937Z,19.94
2023-05-25T12:49:28.969Z,20.01
2023-05-25T12:51:39.495Z,20.03
2023-05-25T12:53:51.061Z,20.07
2023-05-25T12:56:02.172Z,20.12
2023-05-25T12:58:06.952Z,20.21
2023-05-25T13:00:11.759Z,20.41
2023-05-25T13:02:16.087Z,20.63
2023-05-25T13:04:19.422Z,20.85
2023-05-25T13:06:22.857Z,21.03
2023-05-25T13:08:26.178Z,21.20
2023-05-25T13:10:32.821Z,21.32
2023-05-25T13:12:36.539Z,21.50
2023-05-25T13:14:39.889Z,21.71
2023-05-25T13:16:43.221Z,21.93
2023-05-25T13:18:46.636Z,22.09
2023-05-25T13:20:51.904Z,22.15
2023-05-25T13:22:57.693Z,22.17
2023-05-25T13:25:02.203Z,22.22
2023-05-25T13:27:07.163Z,22.25
2023-05-25T13:29:10.705Z,22.34
2023-05-25T13:31:14.265Z,22.52
2023-05-25T13:33:17.603Z,22.64
2023-05-25T13:35:34.202Z,22.59
2023-05-25T13:37:37.632Z,22.44
2023-05-25T13:39:40.940Z,22.40
2023-05-25T13:41:44.203Z,22.45
2023-05-25T13:43:49.139Z,22.51
2023-05-25T13:45:52.512Z,22.52
2023-05-25T13:47:55.966Z,22.56
2023-05-25T13:49:59.416Z,22.74
2023-05-25T13:52:02.666Z,22.94
2023-05-25T13:54:06.328Z,23.15
2023-05-25T13:56:09.793Z,23.34
2023-05-25T13:58:13.109Z,23.47
2023-05-25T14:00:18.579Z,23.65
2023-05-25T14:02:21.947Z,23.85
2023-05-25T14:04:26.423Z,24.02
2023-05-25T14:06:30.828Z,24.07
2023-05-25T14:08:34.146Z,24.11
2023-05-25T14:10:39.019Z,24.19
2023-05-25T14:12:43.288Z,24.32
2023-05-25T14:14:46.604Z,24.47
2023-05-25T14:16:51.263Z,24.63
2023-05-25T14:18:55.592Z,24.76
2023-05-25T14:20:58.913Z,24.86
2023-05-25T14:23:02.210Z,24.88
2023-05-25T14:25:06.188Z,24.93
2023-05-25T14:27:09.713Z,25.01
2023-05-25T14:29:13.071Z,25.06
2023-05-25T14:31:16.615Z,25.01
2023-05-25T14:33:21.426Z,24.97
2023-05-25T14:35:24.910Z,24.91
2023-05-25T14:37:28.357Z,24.83
2023-05-25T14:39:31.675Z,24.89
2023-05-25T14:41:34.925Z,24.90
2023-05-25T14:43:38.223Z,24.92
2023-05-25T14:45:41.623Z,24.97
2023-05-25T14:47:45.521Z,24.89
2023-05-25T14:49:50.295Z,24.63
2023-05-25T14:51:53.749Z,24.47
2023-05-25T14:53:57.825Z,24.45
2023-05-25T14:56:01.765Z,24.49
2023-05-25T14:58:05.168Z,24.53
2023-05-25T15:00:10.005Z,24.54
2023-05-25T15:02:13.409Z,24.49
2023-05-25T15:04:16.977Z,24.45
2023-05-25T15:06:21.845Z,24.53
2023-05-25T15:08:25.130Z,24.53
2023-05-25T15:10:29.762Z,24.51
2023-05-25T15:12:33.075Z,24.57
2023-05-25T15:14:39.907Z,24.58
2023-05-25T15:16:43.612Z,24.61
2023-05-25T15:18:47.004Z,24.65
2023-05-25T15:20:50.355Z,24.69
2023-05-25T15:22:55.085Z,24.70
2023-05-25T15:24:59.392Z,24.66
2023-05-25T15:27:05.145Z,24.56
2023-05-25T15:29:08.491Z,24.51
2023-05-25T15:31:11.898Z,24.48
2023-05-25T15:33:15.770Z,24.44
2023-05-25T15:35:19.278Z,24.35
2023-05-25T15:37:22.580Z,24.28
2023-05-25T15:39:27.310Z,24.23
2023-05-25T15:41:30.638Z,24.20
2023-05-25T15:43:33.922Z,24.19
2023-05-25T15:45:37.389Z,24.04
2023-05-25T15:47:40.701Z,23.84
2023-05-25T15:49:44.085Z,23.71
2023-05-25T15:51:47.398Z,23.56
2023-05-25T15:53:50.694Z,23.49
2023-05-25T15:55:55.368Z,23.46
2023-05-25T15:57:58.663Z,23.47
2023-05-25T16:00:01.991Z,23.51
2023-05-25T16:02:05.767Z,23.58
2023-05-25T16:04:09.287Z,23.62
2023-05-25T16:06:12.714Z,23.52
2023-05-25T16:08:16.132Z,23.47
2023-05-25T16:10:19.647Z,23.40
2023-05-25T16:12:26.135Z,23.30
2023-05-25T16:14:29.443Z,23.09
2023-05-25T16:16:32.961Z,22.76
2023-05-25T16:18:36.414Z,22.41
2023-05-25T16:20:39.905Z,22.10
2023-05-25T16:22:43.262Z,21.77
2023-05-25T16:24:46.590Z,21.46
2023-05-25T16:26:49.941Z,21.15
2023-05-25T16:28:54.715Z,20.92
2023-05-25T16:30:58.058Z,20.67
2023-05-25T16:33:01.410Z,20.42
2023-05-25T16:35:05.165Z,20.19
2023-05-25T16:37:08.493Z,19.95
2023-05-25T16:39:11.920Z,19.74
2023-05-25T16:41:15.566Z,19.58
2023-05-25T16:43:18.823Z,19.43
2023-05-25T16:45:23.636Z,19.30
2023-05-25T16:47:27.034Z,19.18
2023-05-25T16:49:30.338Z,19.09
2023-05-25T16:51:33.657Z,19.03
2023-05-25T16:53:36.992Z,18.95
2023-05-25T16:55:40.316Z,18.87
2023-05-25T16:57:43.669Z,18.79
2023-05-25T16:59:47.042Z,18.66
2023-05-25T17:01:52.044Z,18.52
2023-05-25T17:03:55.610Z,18.40
2023-05-25T17:05:59.001Z,18.31
2023-05-25T17:08:02.815Z,18.24
2023-05-25T17:10:07.566Z,18.21
2023-05-25T17:12:11.007Z,18.24
2023-05-25T17:14:14.250Z,18.31
2023-05-25T17:16:17.774Z,18.34
2023-05-25T17:18:22.850Z,18.35
2023-05-25T17:20:26.196Z,18.35
2023-05-25T17:22:29.624Z,18.32
2023-05-25T17:24:32.953Z,18.26
2023-05-25T17:26:36.340Z,18.21
2023-05-25T17:28:39.664Z,18.16
2023-05-25T17:30:42.960Z,18.11
2023-05-25T17:32:47.040Z,18.09
2023-05-25T17:34:51.842Z,18.06
2023-05-25T17:36:55.153Z,18.02
2023-05-25T17:38:58.525Z,17.96
2023-05-25T17:41:01.846Z,17.92
2023-05-25T17:43:05.220Z,17.88
2023-05-25T17:45:11.665Z,17.85
2023-05-25T17:47:15.076Z,17.83
2023-05-25T17:49:18.412Z,17.80
2023-05-25T17:51:23.649Z,17.78
2023-05-25T17:53:27.193Z,17.77
2023-05-25T17:55:30.648Z,17.75
2023-05-25T17:57:33.988Z,17.70
2023-05-25T17:59:37.661Z,17.69
2023-05-25T18:01:41.903Z,17.66
2023-05-25T18:03:45.760Z,17.63
2023-05-25T18:05:49.345Z,17.59
2023-05-25T18:07:54.298Z,17.59
2023-05-25T18:09:57.644Z,17.61
2023-05-25T18:12:01.125Z,17.71
2023-05-25T18:14:05.116Z,17.83
2023-05-25T18:16:08.621Z,17.94
2023-05-25T18:18:12.040Z,18.00
2023-05-25T18:20:15.541Z,17.95
2023-05-25T18:22:19.081Z,17.83
2023-05-25T18:24:23.852Z,17.67
2023-05-25T18:26:27.804Z,17.53
2023-05-25T18:28:31.481Z,17.40
2023-05-25T18:30:34.958Z,17.24
2023-05-25T18:32:38.401Z,17.11
2023-05-25T18:34:42.467Z,16.99
2023-05-25T18:36:46.124Z,16.87
2023-05-25T18:38:49.660Z,16.74
2023-05-25T18:40:54.460Z,16.60
2023-05-25T18:42:57.826Z,16.47
2023-05-25T18:45:01.499Z,16.34
2023-05-25T18:47:05.042Z,16.22
2023-05-25T18:49:08.410Z,16.14
2023-05-25T18:51:12.322Z,16.07
2023-05-25T18:53:15.725Z,15.98
2023-05-25T18:55:19.401Z,15.88
2023-05-25T18:57:24.173Z,15.77
2023-05-25T18:59:27.931Z,15.63
2023-05-25T19:01:31.354Z,15.48
2023-05-25T19:03:34.943Z,15.34
2023-05-25T19:05:38.908Z,15.19
2023-05-25T19:07:54.896Z,15.06
2023-05-25T19:10:02.153Z,14.93
2023-05-25T19:12:07.265Z,14.83
2023-05-25T19:14:11.932Z,14.72
2023-05-25T19:16:15.616Z,14.62
2023-05-25T19:18:19.227Z,14.50
2023-05-25T19:20:22.674Z,14.39
2023-05-25T19:22:26.097Z,14.29
2023-05-25T19:24:29.356Z,14.20
2023-05-25T19:26:32.620Z,14.09
2023-05-25T19:28:35.943Z,14.01
2023-05-25T19:30:40.675Z,13.91
2023-05-25T19:32:44.021Z,13.81
2023-05-25T19:34:47.404Z,13.71
2023-05-25T19:36:59.753Z,13.62
2023-05-25T19:39:05.018Z,13.54
2023-05-25T19:41:08.429Z,13.46
2023-05-25T19:43:11.830Z,13.38
2023-05-25T19:45:15.184Z,13.31
2023-05-25T19:47:19.976Z,13.22
2023-05-25T19:49:23.318Z,13.14
2023-05-25T19:51:26.792Z,13.07
2023-05-25T19:53:31.567Z,13.00
2023-05-25T19:55:36.808Z,12.93
2023-05-25T19:57:40.153Z,12.87
2023-05-25T19:59:44.589Z,12.80
2023-05-25T20:01:48.062Z,12.75
2023-05-25T20:03:52.889Z,12.71
2023-05-25T20:05:56.417Z,12.66
2023-05-25T20:07:59.756Z,12.60
2023-05-25T20:10:03.151Z,12.55
2023-05-25T20:12:07.676Z,12.49
2023-05-25T20:14:10.969Z,12.42
2023-05-25T20:16:14.548Z,12.35
2023-05-25T20:18:18.266Z,12.31
2023-05-25T20:20:22.994Z,12.27
2023-05-25T20:22:26.538Z,12.24
2023-05-25T20:24:29.797Z,12.18
2023-05-25T20:26:34.118Z,12.15
2023-05-25T20:28:37.571Z,12.12
2023-05-25T20:30:41.365Z,12.08
2023-05-25T20:32:44.878Z,12.05
2023-05-25T20:34:48.243Z,12.04
2023-05-25T20:36:53.109Z,12.00
2023-05-25T20:38:56.434Z,11.96
2023-05-25T20:40:59.720Z,11.91
2023-05-25T20:43:03.142Z,11.88
2023-05-25T20:45:07.396Z,11.87
2023-05-25T20:47:10.813Z,11.84
2023-05-25T20:49:14.079Z,11.81
2023-05-25T20:51:17.405Z,11.78
2023-05-25T20:53:22.319Z,11.75
2023-05-25T20:55:25.666Z,11.73
2023-05-25T20:57:29.757Z,11.71
2023-05-25T20:59:33.070Z,11.69
2023-05-25T21:01:36.413Z,11.66
2023-05-25T21:03:40.441Z,11.64
2023-05-25T21:05:44.989Z,11.60
2023-05-25T21:07:48.584Z,11.55
2023-05-25T21:09:53.534Z,11.51
2023-05-25T21:11:56.844Z,11.47
2023-05-25T21:14:00.376Z,11.44
2023-05-25T21:16:03.786Z,11.42
2023-05-25T21:18:08.621Z,11.37
2023-05-25T21:20:12.500Z,11.33
2023-05-25T21:22:16.194Z,11.30
2023-05-25T21:24:19.501Z,11.24
2023-05-25T21:26:24.203Z,11.18
2023-05-25T21:28:27.597Z,11.13
2023-05-25T21:30:30.961Z,11.08
2023-05-25T21:32:34.274Z,11.04
2023-05-25T21:34:37.609Z,11.00
2023-05-25T21:36:40.993Z,10.96
2023-05-25T21:38:44.438Z,10.90
2023-05-25T21:40:47.876Z,10.86
2023-05-25T21:42:54.384Z,10.83
2023-05-25T21:44:57.756Z,10.81
2023-05-25T21:47:01.150Z,10.77
2023-05-25T21:49:04.614Z,10.74
2023-05-25T21:51:07.964Z,10.72
2023-05-25T21:53:11.283Z,10.68
2023-05-25T21:55:14.636Z,10.65
2023-05-25T21:57:18.017Z,10.61
2023-05-25T21:59:22.738Z,10.56
2023-05-25T22:01:26.063Z,10.52
2023-05-25T22:03:29.361Z,10.49
2023-05-25T22:05:34.497Z,10.45
2023-05-25T22:07:37.857Z,10.41
2023-05-25T22:09:41.129Z,10.37
2023-05-25T22:11:44.468Z,10.32
2023-05-25T22:13:47.776Z,10.29
2023-05-25T22:15:52.604Z,10.23
2023-05-25T22:17:56.273Z,10.19
2023-05-25T22:22:09.643Z,10.11
2023-05-25T22:24:12.946Z,10.08
2023-05-25T22:26:16.352Z,10.02
2023-05-25T22:28:19.636Z,9.98
2023-05-25T22:30:23.053Z,9.93
2023-05-25T22:32:27.817Z,9.88
2023-05-25T22:34:31.192Z,9.84
2023-05-25T22:36:34.472Z,9.80
2023-05-25T22:38:37.748Z,9.77
2023-05-25T22:40:41.082Z,9.74
2023-05-25T22:42:49.892Z,9.71
2023-05-25T22:44:53.219Z,9.68
2023-05-25T22:46:56.663Z,9.65
2023-05-25T22:49:01.426Z,9.61
2023-05-25T22:51:04.765Z,9.56
2023-05-25T22:53:08.072Z,9.51
2023-05-25T22:55:11.773Z,9.49
2023-05-25T22:57:15.051Z,9.46
2023-05-25T22:59:19.022Z,9.45
2023-05-25T23:01:22.395Z,9.42
2023-05-25T23:03:25.837Z,9.40
2023-05-25T23:05:30.772Z,9.38
2023-05-25T23:07:34.127Z,9.34
2023-05-25T23:09:37.508Z,9.31
2023-05-25T23:11:41.146Z,9.27
2023-05-25T23:13:45.341Z,9.27
2023-05-25T23:15:49.086Z,9.24
2023-05-25T23:17:52.549Z,9.22
2023-05-25T23:19:56.029Z,9.18
2023-05-25T23:22:00.889Z,9.14
2023-05-25T23:24:04.319Z,9.11
2023-05-25T23:26:07.928Z,9.08
2023-05-25T23:28:11.449Z,9.06
2023-05-25T23:30:14.914Z,9.02
2023-05-25T23:32:18.408Z,8.98
2023-05-25T23:34:21.928Z,8.94
2023-05-25T23:36:26.313Z,8.92
2023-05-25T23:38:31.291Z,8.90
2023-05-25T23:40:34.717Z,8.86
2023-05-25T23:42:41.520Z,8.83
2023-05-25T23:44:44.954Z,8.80
2023-05-25T23:46:48.370Z,8.78
2023-05-25T23:48:51.896Z,8.75
2023-05-25T23:50:55.280Z,8.73
2023-05-25T23:52:58.689Z,8.68
2023-05-25T23:55:03.542Z,8.65
2023-05-25T23:57:07.118Z,8.62
2023-05-25T23:59:12.282Z,8.59
